createdAt,value
2018-09-22T00:00:15.113Z,98.05
2018-09-22T00:01:15.581Z,98.07
2018-09-22T00:02:16.053Z,98.07
2018-09-22T00:03:16.523Z,98.06
2018-09-22T00:04:16.993Z,98.05
2018-09-22T00:05:17.464Z,98.06
2018-09-22T00:06:17.940Z,98.05
2018-09-22T00:07:18.406Z,98.06
2018-09-22T00:08:18.877Z,98.07
2018-09-22T00:09:19.351Z,98.06
2018-09-22T00:10:19.818Z,98.07
2018-09-22T00:11:20.289Z,98.07
2018-09-22T00:12:20.766Z,98.04
2018-09-22T00:13:21.229Z,98.07
2018-09-22T00:14:21.700Z,98.05
2018-09-22T00:15:22.171Z,98.08
2018-09-22T00:16:22.647Z,98.08
2018-09-22T00:17:23.115Z,98.08
2018-09-22T00:18:23.585Z,98.09
2018-09-22T00:19:24.057Z,98.08
2018-09-22T00:20:24.530Z,98.08
2018-09-22T00:21:25.001Z,98.08
2018-09-22T00:22:25.471Z,98.08
2018-09-22T00:23:25.946Z,98.07
2018-09-22T00:24:26.419Z,98.07
2018-09-22T00:25:26.889Z,98.08
2018-09-22T00:26:27.362Z,98.06
2018-09-22T00:27:27.838Z,98.08
2018-09-22T00:28:28.309Z,98.10
2018-09-22T00:29:28.782Z,98.10
2018-09-22T00:30:29.259Z,98.07
2018-09-22T00:31:29.727Z,98.05
2018-09-22T00:32:30.204Z,98.06
2018-09-22T00:33:30.674Z,98.10
2018-09-22T00:34:31.147Z,98.11
2018-09-22T00:35:31.624Z,98.10
2018-09-22T00:36:32.095Z,98.10
2018-09-22T00:37:32.569Z,98.09
2018-09-22T00:38:33.044Z,98.09
2018-09-22T00:39:33.516Z,98.10
2018-09-22T00:40:33.993Z,98.09
2018-09-22T00:41:34.466Z,98.09
2018-09-22T00:42:34.944Z,98.08
2018-09-22T00:43:35.414Z,98.09
2018-09-22T00:44:35.889Z,98.10
2018-09-22T00:45:36.361Z,98.10
2018-09-22T00:46:36.847Z,98.11
2018-09-22T00:47:37.515Z,98.10
2018-09-22T00:48:37.787Z,98.09
2018-09-22T00:49:38.262Z,98.11
2018-09-22T00:50:38.731Z,98.10
2018-09-22T00:51:39.215Z,98.07
2018-09-22T00:52:39.679Z,98.10
2018-09-22T00:53:40.169Z,98.09
2018-09-22T00:54:40.626Z,98.09
2018-09-22T00:55:41.098Z,98.09
2018-09-22T00:56:41.570Z,98.10
2018-09-22T00:57:42.041Z,98.09
2018-09-22T00:58:42.515Z,98.11
2018-09-22T00:59:42.988Z,98.10
2018-09-22T01:00:43.462Z,98.12
2018-09-22T01:01:43.933Z,98.13
2018-09-22T01:02:44.404Z,98.09
2018-09-22T01:03:44.875Z,98.13
2018-09-22T01:04:45.347Z,98.10
2018-09-22T01:05:45.869Z,98.09
2018-09-22T01:06:46.291Z,98.14
2018-09-22T01:07:46.761Z,98.11
2018-09-22T01:08:47.233Z,98.12
2018-09-22T01:09:47.704Z,98.09
2018-09-22T01:10:48.174Z,98.10
2018-09-22T01:11:48.648Z,98.13
2018-09-22T01:12:49.117Z,98.12
2018-09-22T01:13:49.589Z,98.10
2018-09-22T01:14:50.059Z,98.12
2018-09-22T01:15:50.578Z,98.15
2018-09-22T01:16:51.000Z,98.14
2018-09-22T01:17:51.469Z,98.15
2018-09-22T01:18:51.940Z,98.13
2018-09-22T01:19:52.413Z,98.15
2018-09-22T01:20:52.884Z,98.15
2018-09-22T01:21:53.352Z,98.13
2018-09-22T01:22:53.825Z,98.14
2018-09-22T01:23:54.295Z,98.13
2018-09-22T01:24:54.768Z,98.13
2018-09-22T01:25:55.236Z,98.13
2018-09-22T01:26:55.708Z,98.16
2018-09-22T01:27:56.181Z,98.14
2018-09-22T01:28:56.652Z,98.15
2018-09-22T01:29:57.124Z,98.16
2018-09-22T01:30:57.598Z,98.13
2018-09-22T01:31:58.069Z,98.13
2018-09-22T01:32:58.540Z,98.13
2018-09-22T01:33:59.015Z,98.14
2018-09-22T01:34:59.485Z,98.16
2018-09-22T01:36:00.007Z,98.16
2018-09-22T01:37:00.435Z,98.14
2018-09-22T01:38:00.904Z,98.14
2018-09-22T01:39:01.377Z,98.16
2018-09-22T01:40:01.853Z,98.16
2018-09-22T01:41:02.325Z,98.15
2018-09-22T01:42:03.000Z,98.16
2018-09-22T01:43:03.274Z,98.16
2018-09-22T01:44:03.747Z,98.17
2018-09-22T01:45:04.220Z,98.17
2018-09-22T01:46:04.693Z,98.18
2018-09-22T01:47:05.173Z,98.18
2018-09-22T01:48:05.642Z,98.14
2018-09-22T01:49:06.116Z,98.17
2018-09-22T01:50:06.592Z,98.19
2018-09-22T01:51:07.065Z,98.19
2018-09-22T01:52:07.539Z,98.19
2018-09-22T01:53:08.013Z,98.18
2018-09-22T01:54:08.487Z,98.17
2018-09-22T01:55:08.963Z,98.17
2018-09-22T01:56:09.438Z,98.15
2018-09-22T01:57:09.909Z,98.18
2018-09-22T01:58:10.382Z,98.16
2018-09-22T01:59:10.857Z,98.16
2018-09-22T02:00:11.330Z,98.20
2018-09-22T02:01:11.803Z,98.19
2018-09-22T02:02:12.276Z,98.19
2018-09-22T02:03:12.748Z,98.19
2018-09-22T02:04:13.223Z,98.20
2018-09-22T02:05:13.695Z,98.15
2018-09-22T02:06:14.169Z,98.20
2018-09-22T02:07:14.644Z,98.16
2018-09-22T02:08:15.111Z,98.17
2018-09-22T02:09:15.587Z,98.18
2018-09-22T02:10:16.053Z,98.16
2018-09-22T02:11:16.525Z,98.16
2018-09-22T02:12:16.996Z,98.20
2018-09-22T02:13:17.469Z,98.17
2018-09-22T02:14:17.941Z,98.18
2018-09-22T02:15:18.411Z,98.19
2018-09-22T02:16:18.882Z,98.20
2018-09-22T02:17:19.352Z,98.19
2018-09-22T02:18:19.822Z,98.20
2018-09-22T02:19:20.293Z,98.21
2018-09-22T02:20:20.763Z,98.22
2018-09-22T02:21:21.236Z,98.20
2018-09-22T02:22:21.704Z,98.21
2018-09-22T02:23:22.175Z,98.19
2018-09-22T02:24:22.645Z,98.20
2018-09-22T02:25:23.117Z,98.20
2018-09-22T02:26:23.585Z,98.20
2018-09-22T02:27:24.057Z,98.20
2018-09-22T02:28:24.525Z,98.18
2018-09-22T02:29:24.998Z,98.22
2018-09-22T02:30:25.466Z,98.20
2018-09-22T02:31:25.938Z,98.18
2018-09-22T02:32:26.408Z,98.20
2018-09-22T02:33:26.880Z,98.22
2018-09-22T02:34:27.350Z,98.20
2018-09-22T02:35:27.822Z,98.22
2018-09-22T02:36:28.293Z,98.19
2018-09-22T02:37:28.763Z,98.18
2018-09-22T02:38:29.232Z,98.18
2018-09-22T02:39:29.705Z,98.20
2018-09-22T02:40:30.175Z,98.27
2018-09-22T02:41:30.652Z,98.22
2018-09-22T02:42:31.121Z,98.15
2018-09-22T02:43:31.595Z,98.17
2018-09-22T02:44:32.065Z,98.13
2018-09-22T02:45:32.542Z,98.14
2018-09-22T02:46:33.008Z,98.21
2018-09-22T02:47:33.483Z,98.22
2018-09-22T02:48:33.959Z,98.18
2018-09-22T02:49:34.431Z,98.11
2018-09-22T02:50:34.900Z,98.14
2018-09-22T02:51:35.374Z,98.15
2018-09-22T02:52:35.848Z,98.23
2018-09-22T02:53:36.321Z,98.20
2018-09-22T02:54:36.796Z,98.16
2018-09-22T02:55:37.268Z,98.18
2018-09-22T02:56:37.744Z,98.19
2018-09-22T02:57:38.221Z,98.19
2018-09-22T02:58:38.763Z,98.14
2018-09-22T02:59:39.171Z,98.13
2018-09-22T03:00:39.773Z,98.17
2018-09-22T03:01:40.112Z,98.12
2018-09-22T03:02:40.588Z,98.17
2018-09-22T03:03:41.063Z,98.18
2018-09-22T03:04:41.534Z,98.10
2018-09-22T03:05:42.007Z,97.95
2018-09-22T03:06:42.527Z,97.99
2018-09-22T03:07:42.952Z,98.00
2018-09-22T03:08:43.460Z,98.25
2018-09-22T03:09:43.900Z,98.09
2018-09-22T03:10:44.373Z,98.02
2018-09-22T03:11:44.846Z,98.12
2018-09-22T03:12:45.317Z,98.17
2018-09-22T03:13:45.791Z,98.10
2018-09-22T03:14:46.264Z,98.08
2018-09-22T03:15:46.735Z,98.08
2018-09-22T03:16:47.208Z,98.08
2018-09-22T03:17:47.679Z,98.12
2018-09-22T03:18:48.151Z,98.10
2018-09-22T03:19:48.623Z,98.04
2018-09-22T03:20:49.093Z,98.20
2018-09-22T03:21:49.564Z,98.16
2018-09-22T03:22:50.036Z,98.10
2018-09-22T03:23:50.507Z,98.22
2018-09-22T03:24:50.983Z,98.18
2018-09-22T03:25:51.447Z,98.06
2018-09-22T03:26:51.917Z,98.25
2018-09-22T03:27:52.392Z,98.24
2018-09-22T03:28:52.863Z,98.16
2018-09-22T03:29:53.332Z,98.19
2018-09-22T03:30:53.800Z,98.22
2018-09-22T03:31:54.269Z,98.22
2018-09-22T03:32:54.741Z,98.22
2018-09-22T03:33:55.210Z,98.19
2018-09-22T03:34:55.680Z,98.23
2018-09-22T03:35:56.149Z,98.20
2018-09-22T03:36:56.620Z,98.20
2018-09-22T03:37:57.088Z,98.22
2018-09-22T03:38:57.562Z,98.22
2018-09-22T03:39:58.030Z,98.23
2018-09-22T03:40:58.502Z,98.19
2018-09-22T03:41:58.971Z,98.20
2018-09-22T03:42:59.440Z,98.21
2018-09-22T03:43:59.910Z,98.21
2018-09-22T03:45:00.381Z,98.24
2018-09-22T03:46:00.853Z,98.21
2018-09-22T03:47:01.322Z,98.21
2018-09-22T03:48:01.798Z,98.22
2018-09-22T03:49:02.263Z,98.20
2018-09-22T03:50:02.736Z,98.20
2018-09-22T03:51:03.205Z,98.24
2018-09-22T03:52:03.679Z,98.20
2018-09-22T03:53:04.149Z,98.22
2018-09-22T03:54:04.624Z,98.24
2018-09-22T03:55:05.092Z,98.19
2018-09-22T03:56:05.565Z,98.17
2018-09-22T03:57:06.037Z,98.22
2018-09-22T03:58:06.508Z,98.24
2018-09-22T03:59:06.980Z,98.22
2018-09-22T04:00:07.454Z,98.22
2018-09-22T04:01:07.927Z,98.22
2018-09-22T04:02:08.600Z,98.21
2018-09-22T04:03:08.873Z,98.24
2018-09-22T04:04:09.343Z,98.24
2018-09-22T04:05:09.821Z,98.18
2018-09-22T04:06:10.290Z,98.23
2018-09-22T04:07:10.765Z,98.22
2018-09-22T04:08:11.238Z,98.23
2018-09-22T04:09:11.711Z,98.23
2018-09-22T04:10:12.185Z,98.23
2018-09-22T04:11:12.657Z,98.22
2018-09-22T04:12:13.131Z,98.23
2018-09-22T04:13:13.606Z,98.23
2018-09-22T04:14:14.080Z,98.21
2018-09-22T04:15:14.551Z,98.22
2018-09-22T04:16:15.026Z,98.22
2018-09-22T04:17:15.508Z,98.21
2018-09-22T04:18:15.974Z,98.23
2018-09-22T04:19:16.446Z,98.20
2018-09-22T04:20:16.919Z,98.21
2018-09-22T04:21:17.396Z,98.23
2018-09-22T04:22:17.865Z,98.24
2018-09-22T04:23:18.348Z,98.24
2018-09-22T04:24:18.812Z,98.23
2018-09-22T04:25:19.291Z,98.23
2018-09-22T04:26:19.755Z,98.23
2018-09-22T04:27:20.226Z,98.23
2018-09-22T04:28:20.700Z,98.22
2018-09-22T04:29:21.170Z,98.23
2018-09-22T04:30:21.645Z,98.24
2018-09-22T04:31:22.115Z,98.22
2018-09-22T04:32:22.587Z,98.21
2018-09-22T04:33:23.084Z,98.22
2018-09-22T04:34:23.527Z,98.22
2018-09-22T04:35:23.994Z,98.22
2018-09-22T04:36:24.467Z,98.23
2018-09-22T04:37:24.938Z,98.22
2018-09-22T04:38:25.408Z,98.22
2018-09-22T04:39:25.879Z,98.22
2018-09-22T04:40:26.349Z,98.24
2018-09-22T04:41:26.817Z,98.25
2018-09-22T04:42:27.287Z,98.22
2018-09-22T04:43:27.760Z,98.19
2018-09-22T04:44:28.234Z,98.24
2018-09-22T04:45:28.699Z,98.22
2018-09-22T04:46:29.180Z,98.23
2018-09-22T04:47:29.640Z,98.22
2018-09-22T04:48:30.108Z,98.25
2018-09-22T04:49:30.578Z,98.21
2018-09-22T04:50:31.049Z,98.21
2018-09-22T04:51:31.519Z,98.25
2018-09-22T04:52:31.990Z,98.25
2018-09-22T04:53:32.460Z,98.24
2018-09-22T04:54:32.932Z,98.24
2018-09-22T04:55:33.402Z,98.24
2018-09-22T04:56:33.871Z,98.24
2018-09-22T04:57:34.343Z,98.24
2018-09-22T04:58:34.815Z,98.24
2018-09-22T04:59:35.284Z,98.23
2018-09-22T05:00:35.757Z,98.24
2018-09-22T05:01:36.228Z,98.23
2018-09-22T05:02:36.702Z,98.24
2018-09-22T05:03:37.169Z,98.22
2018-09-22T05:04:37.641Z,98.23
2018-09-22T05:05:38.113Z,98.23
2018-09-22T05:06:38.586Z,98.22
2018-09-22T05:07:39.056Z,98.22
2018-09-22T05:08:39.532Z,98.22
2018-09-22T05:09:40.005Z,98.26
2018-09-22T05:10:40.474Z,98.24
2018-09-22T05:11:40.953Z,98.24
2018-09-22T05:12:41.419Z,98.23
2018-09-22T05:13:41.893Z,98.22
2018-09-22T05:14:42.369Z,98.23
2018-09-22T05:15:42.838Z,98.24
2018-09-22T05:16:43.310Z,98.23
2018-09-22T05:17:43.784Z,98.20
2018-09-22T05:18:44.260Z,98.24
2018-09-22T05:19:44.732Z,98.25
2018-09-22T05:20:45.205Z,98.25
2018-09-22T05:21:45.676Z,98.25
2018-09-22T05:22:46.149Z,98.25
2018-09-22T05:23:46.623Z,98.22
2018-09-22T05:24:47.108Z,98.22
2018-09-22T05:25:47.571Z,98.24
2018-09-22T05:26:48.043Z,98.24
2018-09-22T05:27:48.518Z,98.23
2018-09-22T05:28:48.991Z,98.22
2018-09-22T05:29:49.465Z,98.22
2018-09-22T05:30:49.938Z,98.22
2018-09-22T05:31:50.410Z,98.25
2018-09-22T05:32:50.883Z,98.22
2018-09-22T05:33:51.358Z,98.25
2018-09-22T05:34:51.834Z,98.23
2018-09-22T05:35:52.303Z,98.23
2018-09-22T05:36:52.782Z,98.22
2018-09-22T05:37:53.251Z,98.22
2018-09-22T05:38:53.723Z,98.26
2018-09-22T05:39:54.196Z,98.25
2018-09-22T05:40:54.667Z,98.22
2018-09-22T05:41:55.140Z,98.23
2018-09-22T05:42:55.916Z,98.22
2018-09-22T05:43:56.084Z,98.22
2018-09-22T05:44:56.553Z,98.24
2018-09-22T05:45:57.028Z,98.23
2018-09-22T05:46:57.498Z,98.25
2018-09-22T05:47:57.968Z,98.23
2018-09-22T05:48:58.443Z,98.24
2018-09-22T05:49:58.911Z,98.22
2018-09-22T05:50:59.382Z,98.22
2018-09-22T05:51:59.851Z,98.22
2018-09-22T05:53:00.321Z,98.23
2018-09-22T05:54:00.790Z,98.23
2018-09-22T05:55:01.262Z,98.22
2018-09-22T05:56:01.734Z,98.23
2018-09-22T05:57:02.209Z,98.22
2018-09-22T05:58:02.756Z,98.22
2018-09-22T05:59:03.141Z,98.22
2018-09-22T06:00:03.612Z,98.23
2018-09-22T06:01:04.083Z,98.24
2018-09-22T06:02:04.554Z,98.20
2018-09-22T06:03:05.044Z,98.21
2018-09-22T06:04:05.493Z,98.21
2018-09-22T06:05:05.965Z,98.22
2018-09-22T06:06:06.432Z,98.22
2018-09-22T06:07:06.901Z,98.22
2018-09-22T06:08:07.372Z,98.22
2018-09-22T06:09:07.847Z,98.23
2018-09-22T06:10:08.312Z,98.22
2018-09-22T06:11:08.784Z,98.25
2018-09-22T06:12:09.255Z,98.21
2018-09-22T06:13:09.724Z,98.24
2018-09-22T06:14:10.197Z,98.21
2018-09-22T06:15:10.668Z,98.22
2018-09-22T06:16:11.140Z,98.22
2018-09-22T06:17:11.608Z,98.26
2018-09-22T06:18:12.083Z,98.22
2018-09-22T06:19:12.552Z,98.21
2018-09-22T06:20:13.025Z,98.24
2018-09-22T06:21:13.495Z,98.22
2018-09-22T06:22:13.967Z,98.22
2018-09-22T06:23:14.458Z,98.25
2018-09-22T06:24:14.913Z,98.21
2018-09-22T06:25:15.381Z,98.22
2018-09-22T06:26:15.855Z,98.21
2018-09-22T06:27:16.330Z,98.22
2018-09-22T06:28:16.803Z,98.19
2018-09-22T06:29:17.273Z,98.22
2018-09-22T06:30:17.745Z,98.20
2018-09-22T06:31:18.217Z,98.20
2018-09-22T06:32:18.690Z,98.21
2018-09-22T06:33:19.164Z,98.20
2018-09-22T06:34:19.636Z,98.21
2018-09-22T06:35:20.110Z,98.21
2018-09-22T06:36:20.584Z,98.19
2018-09-22T06:37:21.059Z,98.18
2018-09-22T06:38:21.530Z,98.18
2018-09-22T06:39:22.004Z,98.19
2018-09-22T06:40:22.487Z,98.19
2018-09-22T06:41:22.950Z,98.17
2018-09-22T06:42:23.424Z,98.18
2018-09-22T06:43:23.897Z,98.18
2018-09-22T06:44:24.370Z,98.18
2018-09-22T06:45:24.845Z,98.18
2018-09-22T06:46:25.318Z,98.16
2018-09-22T06:47:25.790Z,98.18
2018-09-22T06:48:26.263Z,98.17
2018-09-22T06:49:26.736Z,98.17
2018-09-22T06:50:27.209Z,98.20
2018-09-22T06:51:27.685Z,98.18
2018-09-22T06:52:28.155Z,98.16
2018-09-22T06:53:28.626Z,98.09
2018-09-22T06:54:29.102Z,98.08
2018-09-22T06:55:29.571Z,98.00
2018-09-22T06:56:30.042Z,97.64
2018-09-22T06:57:30.516Z,97.38
2018-09-22T06:58:30.987Z,97.11
2018-09-22T06:59:31.458Z,96.08
2018-09-22T07:00:31.928Z,96.03
2018-09-22T07:01:32.399Z,96.44
2018-09-22T07:02:32.871Z,96.31
2018-09-22T07:03:33.340Z,95.79
2018-09-22T07:04:33.814Z,95.17
2018-09-22T07:05:34.280Z,95.24
2018-09-22T07:06:34.753Z,93.77
2018-09-22T07:07:35.225Z,94.27
2018-09-22T07:08:35.692Z,93.95
2018-09-22T07:09:36.164Z,94.12
2018-09-22T07:10:36.636Z,92.86
2018-09-22T07:11:37.102Z,91.97
2018-09-22T07:12:37.569Z,91.74
2018-09-22T07:13:38.054Z,91.22
2018-09-22T07:14:38.510Z,90.52
2018-09-22T07:15:38.980Z,90.87
2018-09-22T07:16:39.450Z,90.67
2018-09-22T07:17:39.921Z,89.19
2018-09-22T07:18:40.388Z,88.82
2018-09-22T07:19:40.859Z,90.60
2018-09-22T07:20:41.328Z,90.00
2018-09-22T07:21:41.798Z,89.52
2018-09-22T07:22:42.268Z,90.05
2018-09-22T07:23:42.737Z,90.78
2018-09-22T07:24:43.207Z,91.99
2018-09-22T07:25:43.676Z,91.50
2018-09-22T07:26:44.153Z,90.60
2018-09-22T07:27:44.622Z,90.21
2018-09-22T07:28:45.090Z,89.04
2018-09-22T07:29:45.558Z,90.11
2018-09-22T07:30:46.043Z,89.67
2018-09-22T07:31:46.501Z,89.05
2018-09-22T07:32:46.971Z,89.81
2018-09-22T07:33:47.442Z,90.51
2018-09-22T07:34:47.913Z,91.47
2018-09-22T07:35:48.386Z,92.03
2018-09-22T07:36:48.858Z,91.63
2018-09-22T07:37:49.327Z,91.99
2018-09-22T07:38:49.801Z,89.80
2018-09-22T07:39:50.274Z,89.35
2018-09-22T07:40:50.744Z,90.35
2018-09-22T07:41:51.214Z,91.29
2018-09-22T07:42:51.688Z,91.34
2018-09-22T07:43:52.161Z,90.91
2018-09-22T07:44:52.632Z,91.04
2018-09-22T07:45:53.162Z,91.13
2018-09-22T07:46:53.580Z,90.99
2018-09-22T07:47:54.051Z,88.90
2018-09-22T07:48:54.574Z,89.82
2018-09-22T07:49:54.997Z,90.30
2018-09-22T07:50:55.469Z,90.87
2018-09-22T07:51:55.950Z,90.78
2018-09-22T07:52:56.418Z,90.57
2018-09-22T07:53:56.890Z,91.39
2018-09-22T07:54:57.363Z,90.45
2018-09-22T07:55:57.838Z,90.98
2018-09-22T07:56:58.330Z,91.74
2018-09-22T07:57:58.787Z,92.32
2018-09-22T07:58:59.268Z,90.91
2018-09-22T07:59:59.733Z,90.52
2018-09-22T08:01:00.218Z,90.23
2018-09-22T08:02:00.681Z,89.36
2018-09-22T08:03:01.155Z,90.43
2018-09-22T08:04:01.631Z,90.22
2018-09-22T08:05:02.103Z,89.73
2018-09-22T08:06:02.576Z,89.02
2018-09-22T08:07:03.051Z,88.54
2018-09-22T08:08:03.525Z,87.03
2018-09-22T08:09:03.996Z,86.89
2018-09-22T08:10:04.468Z,87.49
2018-09-22T08:11:04.942Z,86.82
2018-09-22T08:12:05.414Z,87.70
2018-09-22T08:13:05.886Z,86.92
2018-09-22T08:14:06.361Z,87.18
2018-09-22T08:15:06.835Z,84.96
2018-09-22T08:16:07.304Z,85.81
2018-09-22T08:17:07.774Z,79.44
2018-09-22T08:18:08.255Z,82.20
2018-09-22T08:19:08.720Z,82.96
2018-09-22T08:20:09.189Z,82.38
2018-09-22T08:21:09.661Z,76.06
2018-09-22T08:22:10.132Z,75.80
2018-09-22T08:23:10.603Z,74.89
2018-09-22T08:24:11.073Z,80.55
2018-09-22T08:25:11.608Z,80.32
2018-09-22T08:26:12.015Z,78.88
2018-09-22T08:27:12.484Z,76.89
2018-09-22T08:28:12.954Z,75.77
2018-09-22T08:29:13.426Z,70.43
2018-09-22T08:30:13.893Z,67.65
2018-09-22T08:31:14.364Z,70.18
2018-09-22T08:32:14.837Z,70.62
2018-09-22T08:33:15.304Z,66.15
2018-09-22T08:34:15.773Z,65.38
2018-09-22T08:35:16.245Z,63.20
2018-09-22T08:36:16.749Z,63.40
2018-09-22T08:37:17.224Z,62.71
2018-09-22T08:38:17.654Z,62.34
2018-09-22T08:39:18.125Z,60.32
2018-09-22T08:40:18.593Z,66.50
2018-09-22T08:41:19.065Z,71.49
2018-09-22T08:42:19.539Z,69.97
2018-09-22T08:43:20.004Z,68.74
2018-09-22T08:44:20.476Z,75.22
2018-09-22T08:45:20.946Z,75.73
2018-09-22T08:46:21.417Z,76.19
2018-09-22T08:47:21.887Z,77.13
2018-09-22T08:48:22.359Z,77.82
2018-09-22T08:49:22.829Z,77.08
2018-09-22T08:50:23.301Z,76.84
2018-09-22T08:51:23.772Z,75.37
2018-09-22T08:52:24.244Z,76.85
2018-09-22T08:53:24.715Z,77.20
2018-09-22T08:54:25.186Z,77.39
2018-09-22T08:55:25.663Z,78.44
2018-09-22T08:56:26.132Z,77.90
2018-09-22T08:57:26.605Z,76.25
2018-09-22T08:58:27.075Z,77.42
2018-09-22T08:59:27.547Z,76.79
2018-09-22T09:00:28.075Z,74.07
2018-09-22T09:01:28.494Z,74.74
2018-09-22T09:02:28.965Z,74.62
2018-09-22T09:03:29.439Z,73.13
2018-09-22T09:04:29.914Z,72.98
2018-09-22T09:05:30.384Z,72.11
2018-09-22T09:06:30.858Z,65.29
2018-09-22T09:07:31.331Z,68.46
2018-09-22T09:08:31.810Z,68.48
2018-09-22T09:09:32.277Z,69.12
2018-09-22T09:10:32.752Z,68.07
2018-09-22T09:11:33.247Z,66.47
2018-09-22T09:12:33.700Z,66.19
2018-09-22T09:13:34.189Z,67.37
2018-09-22T09:14:34.649Z,69.79
2018-09-22T09:15:35.120Z,70.15
2018-09-22T09:16:35.595Z,71.96
2018-09-22T09:17:36.067Z,72.20
2018-09-22T09:18:36.540Z,72.02
2018-09-22T09:19:37.014Z,73.73
2018-09-22T09:20:37.492Z,73.25
2018-09-22T09:21:37.961Z,72.40
2018-09-22T09:22:38.437Z,73.05
2018-09-22T09:23:38.909Z,72.20
2018-09-22T09:24:39.383Z,69.46
2018-09-22T09:25:39.853Z,69.84
2018-09-22T09:26:40.326Z,72.50
2018-09-22T09:27:40.801Z,68.44
2018-09-22T09:28:41.273Z,71.40
2018-09-22T09:29:41.744Z,74.17
2018-09-22T09:30:42.215Z,73.68
2018-09-22T09:31:42.687Z,70.20
2018-09-22T09:32:43.159Z,67.46
2018-09-22T09:33:43.632Z,67.78
2018-09-22T09:34:44.103Z,62.60
2018-09-22T09:35:44.572Z,63.03
2018-09-22T09:36:45.043Z,65.86
2018-09-22T09:37:45.514Z,67.87
2018-09-22T09:38:45.984Z,70.42
2018-09-22T09:39:46.456Z,70.24
2018-09-22T09:40:46.926Z,70.10
2018-09-22T09:41:47.396Z,69.82
2018-09-22T09:42:47.866Z,69.06
2018-09-22T09:43:48.417Z,69.28
2018-09-22T09:44:48.808Z,68.25
2018-09-22T09:45:49.275Z,68.15
2018-09-22T09:46:49.746Z,68.50
2018-09-22T09:47:50.218Z,70.18
2018-09-22T09:48:50.684Z,70.90
2018-09-22T09:49:51.155Z,71.67
2018-09-22T09:50:51.624Z,73.49
2018-09-22T09:51:52.095Z,74.60
2018-09-22T09:52:52.566Z,74.64
2018-09-22T09:53:53.034Z,73.44
2018-09-22T09:54:53.561Z,72.77
2018-09-22T09:55:53.977Z,72.39
2018-09-22T09:56:54.453Z,72.46
2018-09-22T09:57:54.917Z,72.53
2018-09-22T09:58:55.387Z,71.39
2018-09-22T09:59:55.857Z,70.69
2018-09-22T10:00:56.332Z,69.20
2018-09-22T10:01:56.800Z,67.00
2018-09-22T10:02:57.270Z,69.84
2018-09-22T10:03:57.741Z,71.01
2018-09-22T10:04:58.212Z,71.43
2018-09-22T10:05:58.683Z,72.24
2018-09-22T10:06:59.154Z,72.05
2018-09-22T10:07:59.627Z,71.31
2018-09-22T10:09:00.100Z,73.48
2018-09-22T10:10:00.572Z,74.50
2018-09-22T10:11:01.046Z,74.68
2018-09-22T10:12:01.517Z,74.52
2018-09-22T10:13:01.990Z,73.59
2018-09-22T10:14:02.458Z,73.65
2018-09-22T10:15:02.934Z,74.21
2018-09-22T10:16:03.404Z,74.03
2018-09-22T10:17:03.878Z,72.61
2018-09-22T10:18:04.349Z,74.30
2018-09-22T10:19:04.824Z,74.76
2018-09-22T10:20:05.302Z,72.80
2018-09-22T10:21:05.770Z,73.98
2018-09-22T10:22:06.244Z,72.12
2018-09-22T10:23:06.716Z,72.41
2018-09-22T10:24:07.189Z,70.96
2018-09-22T10:25:07.664Z,73.87
2018-09-22T10:26:08.138Z,74.45
2018-09-22T10:27:08.612Z,72.38
2018-09-22T10:28:09.127Z,71.70
2018-09-22T10:29:09.560Z,71.47
2018-09-22T10:30:10.031Z,70.00
2018-09-22T10:31:10.504Z,70.86
2018-09-22T10:32:10.979Z,68.20
2018-09-22T10:33:11.454Z,71.29
2018-09-22T10:34:11.924Z,69.79
2018-09-22T10:35:12.399Z,66.67
2018-09-22T10:36:12.873Z,69.84
2018-09-22T10:37:13.345Z,69.89
2018-09-22T10:38:13.815Z,70.24
2018-09-22T10:39:14.289Z,69.07
2018-09-22T10:40:14.764Z,69.65
2018-09-22T10:41:15.234Z,69.77
2018-09-22T10:42:15.713Z,69.06
2018-09-22T10:43:16.181Z,68.96
2018-09-22T10:44:16.651Z,68.76
2018-09-22T10:45:17.124Z,62.11
2018-09-22T10:46:17.591Z,59.05
2018-09-22T10:47:18.065Z,54.01
2018-09-22T10:48:18.535Z,64.89
2018-09-22T10:49:19.007Z,67.08
2018-09-22T10:50:19.476Z,60.37
2018-09-22T10:51:19.950Z,51.61
2018-09-22T10:52:20.418Z,58.19
2018-09-22T10:53:20.890Z,61.05
2018-09-22T10:54:21.358Z,64.07
2018-09-22T10:55:21.832Z,66.66
2018-09-22T10:56:22.299Z,68.48
2018-09-22T10:57:22.769Z,65.15
2018-09-22T10:58:23.237Z,64.34
2018-09-22T10:59:23.708Z,61.53
2018-09-22T11:00:24.181Z,59.74
2018-09-22T11:01:24.649Z,56.83
2018-09-22T11:02:25.121Z,59.28
2018-09-22T11:03:25.600Z,48.92
2018-09-22T11:04:26.061Z,49.47
2018-09-22T11:05:26.530Z,52.54
2018-09-22T11:06:26.999Z,57.48
2018-09-22T11:07:27.470Z,55.18
2018-09-22T11:08:27.941Z,53.74
2018-09-22T11:09:28.413Z,52.90
2018-09-22T11:10:28.883Z,51.70
2018-09-22T11:11:29.355Z,51.41
2018-09-22T11:12:29.826Z,54.04
2018-09-22T11:13:30.295Z,50.35
2018-09-22T11:14:30.767Z,50.38
2018-09-22T11:15:31.240Z,52.13
2018-09-22T11:16:31.710Z,53.03
2018-09-22T11:17:32.181Z,49.49
2018-09-22T11:18:32.653Z,49.66
2018-09-22T11:19:33.126Z,48.11
2018-09-22T11:20:33.597Z,48.93
2018-09-22T11:21:34.073Z,50.80
2018-09-22T11:22:34.541Z,50.56
2018-09-22T11:23:35.014Z,51.52
2018-09-22T11:24:35.488Z,51.60
2018-09-22T11:25:35.962Z,52.00
2018-09-22T11:26:36.434Z,52.09
2018-09-22T11:27:36.906Z,51.80
2018-09-22T11:28:37.381Z,52.59
2018-09-22T11:29:37.854Z,53.38
2018-09-22T11:30:38.328Z,54.24
2018-09-22T11:31:38.805Z,54.42
2018-09-22T11:32:39.315Z,55.10
2018-09-22T11:33:39.747Z,55.52
2018-09-22T11:34:40.221Z,53.54
2018-09-22T11:35:40.695Z,54.56
2018-09-22T11:36:41.175Z,54.67
2018-09-22T11:37:41.646Z,56.71
2018-09-22T11:38:42.117Z,55.16
2018-09-22T11:39:42.590Z,56.51
2018-09-22T11:40:43.063Z,52.48
2018-09-22T11:41:43.540Z,50.25
2018-09-22T11:42:44.012Z,51.16
2018-09-22T11:43:44.484Z,52.19
2018-09-22T11:44:44.957Z,50.27
2018-09-22T11:45:45.431Z,50.22
2018-09-22T11:46:45.904Z,49.74
2018-09-22T11:47:46.379Z,46.82
2018-09-22T11:48:46.849Z,47.23
2018-09-22T11:49:47.323Z,47.65
2018-09-22T11:50:47.793Z,48.32
2018-09-22T11:51:48.267Z,48.13
2018-09-22T11:52:48.737Z,49.53
2018-09-22T11:53:49.211Z,51.31
2018-09-22T11:54:49.681Z,52.51
2018-09-22T11:55:50.155Z,51.04
2018-09-22T11:56:50.626Z,50.62
2018-09-22T11:57:51.097Z,50.26
2018-09-22T11:58:51.566Z,50.66
2018-09-22T11:59:52.040Z,49.95
2018-09-22T12:00:52.513Z,51.05
2018-09-22T12:01:53.024Z,52.80
2018-09-22T12:02:53.452Z,53.58
2018-09-22T12:03:53.922Z,50.21
2018-09-22T12:04:54.392Z,51.65
2018-09-22T12:05:54.871Z,47.54
2018-09-22T12:06:55.534Z,44.78
2018-09-22T12:07:55.803Z,44.35
2018-09-22T12:08:56.273Z,43.92
2018-09-22T12:09:56.742Z,44.45
2018-09-22T12:10:57.212Z,46.43
2018-09-22T12:11:57.683Z,44.82
2018-09-22T12:12:58.154Z,43.87
2018-09-22T12:13:58.635Z,44.51
2018-09-22T12:14:59.092Z,44.21
2018-09-22T12:15:59.564Z,45.01
2018-09-22T12:17:00.033Z,46.12
2018-09-22T12:18:00.506Z,45.87
2018-09-22T12:19:00.974Z,46.11
2018-09-22T12:20:01.446Z,45.35
2018-09-22T12:21:01.917Z,45.68
2018-09-22T12:22:02.389Z,45.64
2018-09-22T12:23:02.859Z,45.23
2018-09-22T12:24:03.330Z,45.69
2018-09-22T12:25:03.801Z,46.78
2018-09-22T12:26:04.275Z,47.93
2018-09-22T12:27:04.744Z,47.93
2018-09-22T12:28:05.216Z,48.41
2018-09-22T12:29:05.689Z,48.92
2018-09-22T12:30:06.160Z,48.08
2018-09-22T12:31:06.632Z,48.47
2018-09-22T12:32:07.105Z,48.63
2018-09-22T12:33:07.578Z,48.28
2018-09-22T12:34:08.051Z,47.95
2018-09-22T12:35:08.525Z,47.29
2018-09-22T12:36:08.996Z,46.58
2018-09-22T12:37:09.470Z,47.38
2018-09-22T12:38:09.945Z,48.50
2018-09-22T12:39:10.419Z,48.26
2018-09-22T12:40:10.890Z,49.51
2018-09-22T12:41:11.365Z,49.77
2018-09-22T12:42:11.840Z,49.86
2018-09-22T12:43:12.312Z,48.96
2018-09-22T12:44:12.789Z,50.63
2018-09-22T12:45:13.261Z,50.16
2018-09-22T12:46:13.785Z,49.84
2018-09-22T12:47:14.209Z,50.08
2018-09-22T12:48:14.686Z,50.08
2018-09-22T12:49:15.157Z,49.75
2018-09-22T12:50:15.631Z,48.74
2018-09-22T12:51:16.107Z,49.67
2018-09-22T12:52:16.577Z,49.52
2018-09-22T12:53:17.051Z,49.31
2018-09-22T12:54:17.527Z,49.83
2018-09-22T12:55:17.999Z,50.07
2018-09-22T12:56:18.472Z,50.94
2018-09-22T12:57:18.945Z,50.16
2018-09-22T12:58:19.419Z,48.50